createdAt,value
2019-04-06T00:11:42.745Z,28.23
2019-04-06T00:41:45.388Z,33.95
2019-04-06T01:11:48.070Z,33.78
2019-04-06T01:41:50.664Z,34.75
2019-04-06T02:11:53.280Z,34.67
2019-04-06T02:41:55.934Z,39.80
2019-04-06T03:11:58.544Z,36.17
2019-04-06T03:42:01.164Z,38.73
2019-04-06T04:12:06.980Z,38.75
2019-04-06T04:42:09.610Z,34.88
2019-04-06T05:12:12.308Z,37.40
2019-04-06T05:42:14.844Z,43.28
2019-04-06T06:12:17.453Z,41.00
2019-04-06T06:42:20.160Z,39.45
2019-04-06T07:12:22.877Z,38.75
2019-04-06T07:42:25.504Z,44.13
2019-04-06T08:12:28.140Z,36.00
2019-04-06T08:42:30.833Z,39.00
2019-04-06T09:12:33.512Z,41.77
2019-04-06T09:42:36.367Z,36.20
2019-04-06T10:12:38.966Z,35.92
2019-04-06T10:42:41.909Z,39.95
2019-04-06T11:12:44.528Z,39.30
2019-04-06T11:42:47.195Z,40.43
2019-04-06T12:12:49.824Z,34.45
2019-04-06T12:42:52.989Z,32.73
2019-04-06T13:12:55.635Z,38.58
2019-04-06T13:42:58.292Z,35.75
2019-04-06T14:13:01.242Z,29.70
2019-04-06T14:43:03.856Z,26.80
2019-04-06T15:13:06.497Z,26.27
2019-04-06T15:43:09.107Z,26.62
2019-04-06T16:13:12.097Z,25.95
2019-04-06T16:43:14.752Z,41.65
2019-04-06T17:13:17.689Z,31.60
2019-04-06T17:43:20.309Z,13.62
2019-04-06T18:13:22.944Z,8.38
2019-04-06T18:43:25.555Z,7.90
2019-04-06T19:13:28.616Z,10.18
2019-04-06T19:43:31.311Z,17.07
2019-04-06T20:13:34.376Z,15.65
2019-04-06T20:43:38.412Z,12.78
2019-04-06T21:13:41.024Z,14.18
2019-04-06T21:43:43.640Z,20.75
2019-04-06T22:13:49.283Z,28.12
2019-04-06T22:43:52.345Z,25.27
2019-04-06T23:13:55.171Z,29.98
2019-04-06T23:43:57.773Z,32.13
